Flight Track Log - Related Links

Times and Time Zones

All times are in EDT time to prevent confusion due to time zone crossing. See the UAL656 flight status page for this flight to view local times or setup timezone preferences in your user account.

Time Position Orientation Groundspeed Altitude Reporting Facility
EDT Latitude Longitude Course Direction KTS MPH feet Rate Location/Type
Thu 02:03:09 PM 40.6500 -74.2000 294° West 182 209 2,000  Level New York TRACON
Thu 02:04:09 PM 40.6833 -74.2500 311° West 261 300 4,000 2,931 Climbing New York TRACON
Thu 02:06:00 PM 40.9910 -74.5231 319° Northwest  Level FlightAware Approximate
Thu 02:06:03 PM 40.7994 -74.3403 330° Northwest 280 322 10,500  Level New York Center
Thu 02:07:00 PM 41.0658 -74.6179 316° Northwest  Level FlightAware Approximate
Thu 02:07:01 PM 40.8597 -74.4064 320° Northwest 300 345 11,900  Level New York Center
Thu 02:08:00 PM 41.1347 -74.7042 294° West  Level FlightAware Approximate
Thu 02:08:01 PM 40.9447 -74.4906 323° Northwest 337 388 14,900  Level New York Center
Thu 02:09:02 PM 41.0172 -74.5717 320° Northwest 364 419 16,000 545 Climbing New York Center
Thu 02:10:02 PM 41.1078 -74.6647 322° Northwest 377 434 16,000 600 Level New York Center
Thu 02:11:02 PM 41.1708 -74.7733 308° West 372 428 17,200 1,934 Climbing New York Center
Thu 02:12:03 PM 41.2228 -74.8950 300° West 379 436 19,900 2,182 Climbing New York Center
Thu 02:13:03 PM 41.2711 -75.0056 300° West 379 436 21,600 1,373 Climbing New York Center
Thu 02:14:01 PM 41.3247 -75.1303 300° West 385 443 22,600 1,678 Climbing New York Center
Thu 02:15:01 PM 41.3825 -75.2614 300° West 395 455 24,900 1,587 Climbing New York Center
Thu 02:16:02 PM 41.4378 -75.3894 300° West 400 460 25,800 992 Climbing New York Center
Thu 02:17:02 PM 41.4906 -75.5317 296° West 419 482 26,900 1,537 Climbing New York Center
Thu 02:18:03 PM 41.5344 -75.6844 291° West 427 491 28,900 1,736 Climbing New York Center
Thu 02:19:03 PM 41.5742 -75.8261 291° West 427 491 30,400 1,450 Climbing New York Center
Thu 02:20:03 PM 41.6181 -75.9681 293° West 416 479 31,800 1,525 Climbing New York Center
Thu 02:21:01 PM 41.6594 -76.1156 291° West 416 479 33,400 1,678 Climbing New York Center
Thu 02:22:01 PM 41.7003 -76.2717 289° West 416 479 35,100 881 Climbing New York Center
Thu 02:23:58 PM 41.7767 -76.5508 290° West 423 487 36,000 305 Climbing Cleveland Center
Thu 02:24:58 PM 41.8172 -76.6961 291° West 418 481 36,000  Level Cleveland Center
Thu 02:25:58 PM 41.8572 -76.8358 291° West 418 481 36,000  Level Cleveland Center
Thu 02:26:58 PM 41.8972 -76.9814 290° West 418 481 36,000  Level Cleveland Center
Thu 02:27:58 PM 41.9350 -77.1217 290° West 418 481 36,000  Level Cleveland Center
Thu 02:28:58 PM 41.9747 -77.2678 290° West 418 481 36,000  Level Cleveland Center
Thu 02:29:58 PM 42.0100 -77.4111 288° West 418 481 36,000  Level Cleveland Center
Thu 02:30:58 PM 42.0494 -77.5575 290° West 418 481 36,000  Level Cleveland Center
Thu 02:31:58 PM 42.0908 -77.7067 291° West 418 481 36,000 900 Level Cleveland Center
Thu 02:32:58 PM 42.1275 -77.8478 289° West 418 481 37,800 1,000 Climbing Cleveland Center
Thu 02:33:58 PM 42.1642 -77.9892 289° West 413 475 38,000 100 Climbing Cleveland Center
Thu 02:34:58 PM 42.2028 -78.1306 290° West 408 470 38,000  Level Cleveland Center
Thu 02:35:58 PM 42.2392 -78.2722 289° West 402 463 38,000  Level Cleveland Center
Thu 02:36:58 PM 42.2753 -78.4139 289° West 402 463 38,000  Level Cleveland Center
Thu 02:37:58 PM 42.3111 -78.5558 289° West 402 463 38,000  Level Cleveland Center
Thu 02:38:58 PM 42.3489 -78.7008 289° West 402 463 38,000  Level Cleveland Center
Thu 02:39:58 PM 42.3844 -78.8403 289° West 402 463 38,000  Level Cleveland Center
Thu 02:40:58 PM 42.4178 -78.9744 289° West 402 463 38,000  Level Cleveland Center
Thu 02:41:58 PM 42.4572 -79.1283 289° West 402 463 38,000  Level Cleveland Center
Thu 02:42:58 PM 42.4883 -79.2739 286° West 402 463 38,000  Level Cleveland Center
Thu 02:43:58 PM 42.5025 -79.4258 277° West 402 463 38,000  Level Cleveland Center
Thu 02:44:58 PM 42.5058 -79.5778 272° West 407 468 38,000  Level Cleveland Center
Thu 02:45:58 PM 42.5175 -79.7297 276° West 407 468 38,000  Level Cleveland Center
Thu 02:46:58 PM 42.5247 -79.8844 274° West 407 468 38,000  Level Cleveland Center
Thu 02:47:58 PM 42.5278 -80.0367 272° West 407 468 38,000  Level Cleveland Center
Thu 02:48:58 PM 42.5344 -80.1886 273° West 407 468 38,000  Level Cleveland Center
Thu 02:49:58 PM 42.5392 -80.3464 272° West 407 468 38,000  Level Cleveland Center
Thu 02:50:58 PM 42.5456 -80.4903 273° West 419 482 38,000  Level Cleveland Center
Thu 02:51:58 PM 42.5519 -80.6453 273° West 418 481 38,000  Level Cleveland Center
Thu 02:52:58 PM 42.5581 -80.7975 273° West 418 481 38,000  Level Cleveland Center
Thu 02:53:58 PM 42.5639 -80.9553 273° West 418 481 38,000  Level Cleveland Center
Thu 02:54:58 PM 42.5675 -81.1075 272° West 418 481 38,000  Level Cleveland Center
Thu 02:55:58 PM 42.5728 -81.2569 273° West 406 467 38,000  Level Cleveland Center
Thu 02:56:58 PM 42.5803 -81.4122 274° West 406 467 38,000  Level Cleveland Center
Thu 02:57:58 PM 42.6019 -81.5619 281° West 406 467 38,000  Level Cleveland Center
Thu 02:58:58 PM 42.6317 -81.7261 284° West 412 474 38,000  Level Cleveland Center
Thu 02:59:58 PM 42.6533 -81.8592 283° West 407 468 38,000  Level Cleveland Center
Thu 03:00:58 PM 42.6828 -82.0122 285° West 412 474 38,000  Level Cleveland Center
Thu 03:01:58 PM 42.7078 -82.1656 283° West 412 474 38,000  Level Cleveland Center
Thu 03:02:58 PM 42.7328 -82.3186 283° West 412 474 38,000  Level Cleveland Center
Thu 03:03:58 PM 42.7594 -82.4722 283° West 417 480 38,000  Level Cleveland Center
Thu 03:04:58 PM 42.7858 -82.6258 283° West 417 480 38,000  Level Cleveland Center
Thu 03:05:58 PM 42.7956 -82.7844 275° West 417 480 38,000  Level Cleveland Center
Thu 03:06:58 PM 42.8069 -82.9464 276° West 422 486 38,000  Level Cleveland Center
Thu 03:07:59 PM 42.8139 -83.1078 273° West 427 491 38,000  Level Cleveland Center
Thu 03:08:58 PM 42.8228 -83.2667 274° West 427 491 38,000  Level Cleveland Center
Thu 03:09:58 PM 42.8317 -83.4256 274° West 427 491 38,000  Level Cleveland Center
Thu 03:10:58 PM 42.8381 -83.5844 273° West 427 491 38,000 -650 Level Cleveland Center
Thu 03:11:58 PM 42.8461 -83.7464 274° West 427 491 36,700 -1,900 Descending Cleveland Center
Thu 03:12:58 PM 42.8542 -83.9083 274° West 427 491 34,200 -1,750 Descending Cleveland Center
Thu 03:13:58 PM 42.8619 -84.0703 274° West 427 491 33,200 -1,000 Descending Cleveland Center
Thu 03:14:58 PM 42.8692 -84.2322 274° West 427 491 32,200 -600 Descending Cleveland Center
Thu 03:15:58 PM 42.8747 -84.3911 273° West 427 491 32,000 -82 Descending Cleveland Center
Thu 03:17:24 PM 42.8806 -84.6231 272° West 436 502 32,000  Level Chicago Center
Thu 03:18:26 PM 42.8633 -84.7889 262° West 441 507 32,000  Level Chicago Center
Thu 03:19:28 PM 42.8428 -84.9858 262° West 438 504 32,000  Level Chicago Center
Thu 03:20:30 PM 42.8250 -85.1517 262° West 442 509 32,000 -339 Level Chicago Center
Thu 03:21:32 PM 42.8069 -85.3169 262° West 441 507 31,300 -1,344 Descending Chicago Center
Thu 03:22:35 PM 42.7881 -85.4831 261° West 443 510 29,200 -2,064 Descending Chicago Center
Thu 03:23:37 PM 42.7603 -85.6456 257° West 439 505 27,000 -2,129 Descending Chicago Center
Thu 03:24:39 PM 42.7306 -85.8100 256° West 444 511 24,800 -2,129 Descending Chicago Center
Thu 03:25:41 PM 42.7008 -85.9728 256° West 441 507 22,600 -2,081 Descending Chicago Center
Thu 03:26:43 PM 42.6719 -86.1289 256° West 429 494 20,500 -1,258 Descending Chicago Center
Thu 03:27:45 PM 42.6394 -86.3100 256° West 414 476 20,000 -1,016 Descending Chicago Center
Thu 03:28:47 PM 42.6108 -86.4586 255° West 409 471 18,400 -1,694 Descending Chicago Center
Thu 03:29:49 PM 42.5819 -86.6069 255° West 407 468 16,500 -1,210 Descending Chicago Center
Thu 03:30:51 PM 42.5569 -86.7497 257° West 392 451 15,900 -774 Descending Chicago Center
Thu 03:31:53 PM 42.5175 -86.8869 249° West 393 452 14,900 -1,728 Descending Chicago Center
Thu 03:32:56 PM 42.4803 -87.0206 249° West 385 443 12,300 -2,016 Descending Chicago Center
Thu 03:33:58 PM 42.4383 -87.1711 249° West 360 414 10,700 -1,355 Descending Chicago Center
Thu 03:35:00 PM 42.4103 -87.2753 250° West 311 358 9,500 -1,306 Descending Chicago Center
Thu 03:36:02 PM 42.3797 -87.3703 246° West 279 321 8,000 -1,210 Descending Chicago Center
Thu 03:37:04 PM 42.3497 -87.4647 247° West 270 311 7,000 -484 Descending Chicago Center
Thu 03:38:06 PM 42.3031 -87.5594 236° Southwest 267 307 7,000 -145 Level Chicago Center
Thu 03:39:08 PM 42.2447 -87.6231 219° Southwest 268 308 6,700 -823 Descending Chicago Center
Thu 03:40:10 PM 42.1875 -87.6858 219° Southwest 265 305 5,300 -1,113 Descending Chicago Center
Thu 03:41:12 PM 42.1358 -87.7444 220° Southwest 248 285 4,400 -871 Descending Chicago Center

Login

Don't have an account? Register now (free) for customized features, flight alerts, and more!